Time;durP1;ratioP1;P1;durP2;ratioP2;P2;SDS_P1;SDS_P2;PMS_P1;PMS_P2;Temp;Humidity;BMP_temperature;BMP_pressure;BME280_temperature;BME280_humidity;BME280_pressure;Samples;Min_cycle;Max_cycle;Signal;HPM_P1;HPM_P2
2022/10/29 00:00:37;;;;;;;36.95;33.95;;;18.90;99.90;;;;;;5057126;28;20035;-84
2022/10/29 00:03:03;;;;;;;35.97;33.17;;;18.90;99.90;;;;;;5036814;28;20036;-83
2022/10/29 00:05:29;;;;;;;38.45;35.08;;;18.90;99.90;;;;;;5053618;28;20032;-84
2022/10/29 00:07:55;;;;;;;38.55;35.72;;;19.00;99.90;;;;;;5038456;28;20511;-84
2022/10/29 00:10:21;;;;;;;35.33;32.38;;;18.90;99.90;;;;;;5064424;28;20045;-84
2022/10/29 00:12:47;;;;;;;38.03;34.90;;;19.00;99.90;;;;;;5020198;28;20037;-84
2022/10/29 00:15:13;;;;;;;36.92;34.00;;;18.90;99.90;;;;;;5053638;28;20052;-84
2022/10/29 00:17:39;;;;;;;38.05;34.83;;;18.90;99.90;;;;;;5061710;28;20055;-84
2022/10/29 00:20:06;;;;;;;36.72;33.58;;;18.90;99.90;;;;;;5057042;28;20032;-84
2022/10/29 00:22:32;;;;;;;36.00;32.72;;;18.90;99.90;;;;;;5062719;28;20051;-84
2022/10/29 00:24:58;;;;;;;34.72;31.73;;;19.00;99.90;;;;;;5060521;28;20388;-84
2022/10/29 00:27:25;;;;;;;36.05;33.17;;;18.90;99.90;;;;;;5079319;28;20043;-84
2022/10/29 00:29:51;;;;;;;37.40;33.97;;;18.70;99.90;;;;;;5053926;28;20044;-84
2022/10/29 00:32:17;;;;;;;35.80;32.30;;;18.80;99.90;;;;;;5056842;28;20036;-84
2022/10/29 00:34:43;;;;;;;34.88;31.85;;;19.00;99.90;;;;;;5036431;28;20036;-84
2022/10/29 00:37:09;;;;;;;33.60;30.77;;;18.80;99.90;;;;;;5037273;28;20043;-83
2022/10/29 00:39:35;;;;;;;33.42;30.95;;;18.70;99.90;;;;;;5022890;28;20041;-84
2022/10/29 00:42:03;;;;;;;33.60;30.67;;;18.80;99.90;;;;;;5091749;28;20035;-84
2022/10/29 00:44:37;;;;;;;34.22;31.65;;;18.70;99.90;;;;;;5049667;28;20047;-84
2022/10/29 00:47:09;;;;;;;34.10;31.30;;;18.70;99.90;;;;;;5058107;28;20400;-84
2022/10/29 00:49:35;;;;;;;34.75;31.92;;;18.80;99.90;;;;;;5072785;28;20028;-84
2022/10/29 00:52:02;;;;;;;32.90;30.02;;;18.70;99.90;;;;;;5035929;28;20048;-83
2022/10/29 00:54:30;;;;;;;33.15;30.45;;;18.70;99.90;;;;;;5041439;28;20032;-85
2022/10/29 00:57:04;;;;;;;34.20;31.48;;;18.70;99.90;;;;;;5039864;28;20036;-85
2022/10/29 00:59:30;;;;;;;30.33;27.67;;;18.90;99.90;;;;;;5036173;28;20043;-84
2022/10/29 01:01:57;;;;;;;35.30;32.33;;;18.70;99.90;;;;;;5035547;28;20497;-84
2022/10/29 01:04:23;;;;;;;34.55;31.60;;;18.70;99.90;;;;;;5056220;28;20029;-84
2022/10/29 01:06:49;;;;;;;34.65;31.73;;;18.90;99.90;;;;;;5056176;28;20024;-84
2022/10/29 01:09:15;;;;;;;35.83;32.97;;;19.00;99.90;;;;;;5039506;28;20393;-84
2022/10/29 01:11:44;;;;;;;34.75;31.77;;;19.00;99.90;;;;;;5073745;28;20036;-84
2022/10/29 01:14:42;;;;;;;34.53;31.70;;;19.10;99.90;;;;;;5082300;28;20023;-84
2022/10/29 01:17:26;;;;;;;34.75;32.13;;;19.10;99.90;;;;;;5067592;28;20497;-84
2022/10/29 01:20:11;;;;;;;34.28;31.38;;;19.00;99.90;;;;;;5059403;28;20044;-84
2022/10/29 01:22:49;;;;;;;37.63;34.47;;;19.10;99.90;;;;;;5040689;28;20040;-84
2022/10/29 01:25:34;;;;;;;34.08;31.33;;;19.20;99.90;;;;;;5074099;28;20474;-83
2022/10/29 01:28:31;;;;;;;35.78;32.67;;;19.20;99.90;;;;;;5057034;28;20036;-84
2022/10/29 01:31:06;;;;;;;35.83;32.72;;;19.00;99.90;;;;;;5056430;28;20036;-84
2022/10/29 01:33:39;;;;;;;36.35;33.40;;;18.90;99.90;;;;;;5061046;28;20043;-84
2022/10/29 01:36:08;;;;;;;36.85;33.38;;;18.90;99.90;;;;;;5043224;28;20040;-84
2022/10/29 01:39:00;;;;;;;37.33;34.13;;;19.10;99.90;;;;;;5055707;28;20536;-84
2022/10/29 01:42:09;;;;;;;36.30;33.53;;;19.10;99.90;;;;;;5057406;28;20043;-84
2022/10/29 01:44:43;;;;;;;36.08;32.78;;;19.20;99.90;;;;;;4991849;28;20030;-84
2022/10/29 01:47:14;;;;;;;35.80;33.17;;;19.20;99.90;;;;;;4984966;28;20454;-84
2022/10/29 01:49:42;;;;;;;38.28;34.80;;;19.10;99.90;;;;;;4976057;28;20045;-84
2022/10/29 01:52:11;;;;;;;35.03;32.53;;;19.10;99.90;;;;;;5006125;28;20053;-85
2022/10/29 01:54:41;;;;;;;40.20;37.35;;;19.00;99.90;;;;;;4996274;28;20037;-84
2022/10/29 01:57:30;;;;;;;38.75;35.03;;;19.00;99.90;;;;;;4995176;28;20046;-84
2022/10/29 02:00:07;;;;;;;35.28;32.05;;;19.00;99.90;;;;;;4979271;28;20038;-85
2022/10/29 02:02:54;;;;;;;35.72;33.05;;;19.10;99.90;;;;;;4986219;28;20255;-84
2022/10/29 02:05:54;;;;;;;32.63;29.67;;;19.10;99.90;;;;;;4990260;28;20045;-85
2022/10/29 02:08:38;;;;;;;34.47;31.10;;;19.00;99.90;;;;;;4985728;28;20037;-84
2022/10/29 02:11:16;;;;;;;35.20;31.85;;;19.00;99.90;;;;;;4990935;28;20058;-84
2022/10/29 02:13:52;;;;;;;33.60;30.77;;;19.10;99.90;;;;;;4971824;28;20038;-84
2022/10/29 02:16:18;;;;;;;36.95;34.15;;;19.10;99.90;;;;;;5062506;28;20028;-84
2022/10/29 02:18:45;;;;;;;38.42;35.28;;;19.20;99.90;;;;;;5056170;28;20039;-84
2022/10/29 02:21:16;;;;;;;36.85;33.95;;;19.10;99.90;;;;;;5046583;28;20039;-84
2022/10/29 02:23:42;;;;;;;37.03;34.10;;;19.30;99.90;;;;;;5062489;28;20016;-84
2022/10/29 02:26:08;;;;;;;37.38;34.67;;;19.20;99.90;;;;;;5061384;28;20651;-83
2022/10/29 02:28:34;;;;;;;36.92;34.08;;;19.30;99.90;;;;;;5041626;28;20044;-84
2022/10/29 02:31:00;;;;;;;40.63;37.22;;;19.20;99.90;;;;;;5054036;28;20043;-84
2022/10/29 02:33:26;;;;;;;38.63;35.45;;;19.00;99.90;;;;;;5060535;28;20051;-84
2022/10/29 02:35:52;;;;;;;39.08;36.05;;;18.80;99.90;;;;;;5057699;28;20032;-84
2022/10/29 02:38:19;;;;;;;39.65;36.13;;;19.00;99.90;;;;;;5060974;28;20504;-84
2022/10/29 02:40:45;;;;;;;39.40;36.22;;;19.00;99.90;;;;;;5062379;28;20043;-84
2022/10/29 02:43:11;;;;;;;41.05;37.38;;;19.00;99.90;;;;;;5052852;28;20409;-84
2022/10/29 02:45:37;;;;;;;40.60;37.33;;;18.90;99.90;;;;;;5054952;28;20037;-84
2022/10/29 02:48:03;;;;;;;37.38;34.58;;;18.90;99.90;;;;;;5055420;28;20028;-84
2022/10/29 02:50:29;;;;;;;36.92;34.00;;;18.90;99.90;;;;;;5040879;28;20051;-84
2022/10/29 02:52:55;;;;;;;35.38;32.42;;;18.90;99.90;;;;;;5055279;28;20021;-84
2022/10/29 02:55:21;;;;;;;34.55;31.35;;;18.90;99.90;;;;;;5042351;28;20083;-84
2022/10/29 02:57:48;;;;;;;33.90;31.25;;;18.90;99.90;;;;;;5053266;28;20041;-84
2022/10/29 03:00:14;;;;;;;35.35;32.53;;;19.00;99.90;;;;;;5035715;28;20060;-83
2022/10/29 03:02:40;;;;;;;31.88;29.33;;;19.00;99.90;;;;;;5037968;28;20028;-84
2022/10/29 03:05:07;;;;;;;33.78;30.92;;;19.00;99.90;;;;;;5054189;28;20040;-84
2022/10/29 03:07:36;;;;;;;31.13;27.95;;;18.90;99.90;;;;;;5053321;28;20032;-84
2022/10/29 03:10:03;;;;;;;30.73;27.95;;;18.90;99.90;;;;;;5051733;28;20040;-84
2022/10/29 03:12:30;;;;;;;31.65;29.13;;;18.90;99.90;;;;;;5053500;28;20043;-84
2022/10/29 03:14:56;;;;;;;32.80;29.85;;;18.80;99.90;;;;;;5053743;28;20048;-85
2022/10/29 03:17:22;;;;;;;34.78;31.60;;;18.90;99.90;;;;;;5052604;28;20040;-83
2022/10/29 03:19:48;;;;;;;36.70;33.50;;;18.90;99.90;;;;;;5055139;28;20031;-84
2022/10/29 03:22:14;;;;;;;36.83;33.58;;;19.00;99.90;;;;;;5039135;28;20025;-83
2022/10/29 03:24:40;;;;;;;34.95;31.42;;;19.10;99.90;;;;;;5037624;28;20033;-84
2022/10/29 03:27:06;;;;;;;32.17;29.40;;;18.90;99.90;;;;;;5065820;28;20120;-83
2022/10/29 03:29:32;;;;;;;31.88;29.15;;;19.00;99.90;;;;;;5033020;28;20075;-83
2022/10/29 03:31:59;;;;;;;32.45;29.58;;;18.90;99.90;;;;;;5065165;28;20041;-83
2022/10/29 03:34:25;;;;;;;32.40;29.83;;;19.00;99.90;;;;;;5056798;28;20035;-83
2022/10/29 03:36:51;;;;;;;35.78;32.58;;;19.00;99.90;;;;;;5036952;28;20037;-83
2022/10/29 03:39:17;;;;;;;37.28;34.13;;;19.00;99.90;;;;;;5071748;28;20043;-92
2022/10/29 03:41:43;;;;;;;38.60;35.58;;;19.00;99.90;;;;;;5054281;28;20025;-84
2022/10/29 03:44:09;;;;;;;35.92;33.13;;;19.00;99.90;;;;;;5037593;28;20029;-84
2022/10/29 03:46:35;;;;;;;36.88;33.50;;;18.90;99.90;;;;;;5052496;28;20063;-83
2022/10/29 03:49:01;;;;;;;37.15;34.00;;;18.80;99.90;;;;;;5054176;28;20386;-84
2022/10/29 03:51:27;;;;;;;41.10;37.50;;;18.70;99.90;;;;;;5054162;28;20036;-84
2022/10/29 03:53:53;;;;;;;38.30;34.92;;;18.80;99.90;;;;;;5052865;28;20139;-84
2022/10/29 03:56:19;;;;;;;36.22;32.83;;;18.80;99.90;;;;;;5033847;28;20045;-83
2022/10/29 03:58:46;;;;;;;35.95;33.10;;;18.60;99.90;;;;;;5039354;28;20387;-83
2022/10/29 04:01:12;;;;;;;36.67;33.22;;;18.60;99.90;;;;;;5033682;28;20029;-84
2022/10/29 04:03:40;;;;;;;36.85;33.95;;;18.70;99.90;;;;;;5044399;28;20039;-83
2022/10/29 04:06:11;;;;;;;37.30;33.80;;;18.70;99.90;;;;;;5053524;28;20032;-84
2022/10/29 04:08:37;;;;;;;37.38;34.30;;;18.70;99.90;;;;;;5049560;28;20029;-86
2022/10/29 04:11:03;;;;;;;38.90;34.95;;;18.70;99.90;;;;;;5031952;28;20055;-85
2022/10/29 04:13:30;;;;;;;39.53;36.42;;;18.70;99.90;;;;;;5054099;28;20440;-86
2022/10/29 04:15:56;;;;;;;37.88;34.22;;;18.70;99.90;;;;;;5069928;28;20040;-85
2022/10/29 04:18:23;;;;;;;37.22;33.97;;;18.70;99.90;;;;;;5053488;28;20031;-86
2022/10/29 04:20:49;;;;;;;37.20;34.20;;;18.70;99.90;;;;;;5053868;28;20036;-86
2022/10/29 04:23:15;;;;;;;37.60;33.97;;;18.70;99.90;;;;;;5050224;28;20372;-86
2022/10/29 04:25:41;;;;;;;36.72;33.60;;;18.70;99.90;;;;;;5030857;28;20037;-86
2022/10/29 04:28:07;;;;;;;37.70;34.63;;;18.70;99.90;;;;;;5049643;28;20379;-86
2022/10/29 04:30:33;;;;;;;39.17;35.65;;;18.70;99.90;;;;;;5059521;28;20032;-86
2022/10/29 04:32:59;;;;;;;35.28;31.83;;;18.60;99.90;;;;;;5070072;28;20029;-86
2022/10/29 04:35:28;;;;;;;35.55;32.40;;;18.60;99.90;;;;;;5066652;28;20025;-85
2022/10/29 04:37:54;;;;;;;34.92;31.75;;;18.60;99.90;;;;;;5042464;28;20047;-86
2022/10/29 04:40:23;;;;;;;34.85;31.73;;;18.50;99.90;;;;;;5032882;28;20509;-86
2022/10/29 04:42:49;;;;;;;33.00;30.27;;;18.50;99.90;;;;;;5030938;28;20047;-86
2022/10/29 04:45:16;;;;;;;33.53;30.70;;;18.50;99.90;;;;;;5040629;28;20492;-86
2022/10/29 04:47:43;;;;;;;33.83;30.50;;;18.50;99.90;;;;;;5026840;28;20048;-85
2022/10/29 04:50:09;;;;;;;32.63;29.63;;;18.50;99.90;;;;;;5037557;28;20041;-86
2022/10/29 04:52:35;;;;;;;32.25;29.42;;;18.60;99.90;;;;;;5037265;28;20056;-85
2022/10/29 04:55:01;;;;;;;33.75;30.13;;;18.60;99.90;;;;;;5055784;28;20033;-85
2022/10/29 04:57:27;;;;;;;34.10;30.98;;;18.60;99.90;;;;;;5062729;28;20492;-85
2022/10/29 04:59:53;;;;;;;30.77;27.88;;;18.50;99.90;;;;;;5074192;28;20029;-86
2022/10/29 05:02:19;;;;;;;33.45;30.42;;;18.50;99.90;;;;;;5039925;28;20040;-86
2022/10/29 05:04:45;;;;;;;32.63;28.70;;;18.60;99.90;;;;;;5057524;28;20469;-85
2022/10/29 05:07:11;;;;;;;33.13;30.55;;;18.60;99.90;;;;;;5074022;28;20032;-86
2022/10/29 05:09:37;;;;;;;31.83;28.92;;;18.50;99.90;;;;;;5060667;28;20421;-86
2022/10/29 05:12:04;;;;;;;31.63;28.35;;;18.50;99.90;;;;;;5041074;28;20053;-85
2022/10/29 05:14:30;;;;;;;32.78;30.02;;;18.40;99.90;;;;;;5074735;28;20043;-87
2022/10/29 05:16:56;;;;;;;33.22;30.02;;;18.40;99.90;;;;;;5060022;28;20040;-86
2022/10/29 05:19:22;;;;;;;33.00;29.63;;;18.40;99.90;;;;;;5084224;28;20390;-86
2022/10/29 05:21:48;;;;;;;32.15;29.30;;;18.40;99.90;;;;;;5073447;28;20028;-86
2022/10/29 05:24:14;;;;;;;28.98;25.95;;;18.40;99.90;;;;;;5064131;28;20047;-86
2022/10/29 05:26:40;;;;;;;32.95;30.33;;;18.40;99.90;;;;;;5061046;28;20473;-87
2022/10/29 05:29:06;;;;;;;29.92;27.40;;;18.40;99.90;;;;;;5073039;28;20033;-85
2022/10/29 05:31:32;;;;;;;33.92;30.65;;;18.50;99.90;;;;;;5073645;28;20047;-83
2022/10/29 05:33:59;;;;;;;33.92;30.75;;;18.50;99.90;;;;;;5048494;28;20473;-87
2022/10/29 05:36:25;;;;;;;33.65;30.95;;;18.60;99.90;;;;;;5095238;28;20032;-87
2022/10/29 05:38:51;;;;;;;34.88;31.60;;;18.60;99.90;;;;;;5076320;28;20492;-87
2022/10/29 05:41:17;;;;;;;34.13;30.85;;;18.70;99.90;;;;;;5057303;28;20040;-87
2022/10/29 05:43:43;;;;;;;36.47;33.47;;;18.70;99.90;;;;;;5056495;28;20503;-88
2022/10/29 05:46:09;;;;;;;35.35;32.40;;;18.70;99.90;;;;;;5041690;28;20025;-87
2022/10/29 05:48:35;;;;;;;36.80;33.25;;;18.80;99.90;;;;;;5094947;28;20388;-88
2022/10/29 05:51:01;;;;;;;35.63;32.70;;;18.80;99.90;;;;;;5076523;28;20039;-88
2022/10/29 05:53:27;;;;;;;36.67;33.50;;;18.80;99.90;;;;;;5076810;28;20039;-88
2022/10/29 05:55:53;;;;;;;35.35;32.25;;;18.70;99.90;;;;;;5076624;28;20035;-88
2022/10/29 05:58:19;;;;;;;36.85;33.42;;;18.60;99.90;;;;;;5022978;28;20046;-88
2022/10/29 06:00:46;;;;;;;36.25;32.97;;;18.70;99.90;;;;;;5054999;28;20044;-87
2022/10/29 06:03:16;;;;;;;33.45;30.17;;;18.60;99.90;;;;;;5039926;28;20051;-87
2022/10/29 06:05:42;;;;;;;34.33;31.63;;;18.50;99.90;;;;;;5040193;28;20037;-88
2022/10/29 06:08:08;;;;;;;35.85;32.70;;;18.60;99.90;;;;;;5065023;28;20028;-88
2022/10/29 06:10:35;;;;;;;34.80;32.08;;;18.60;99.90;;;;;;5046304;28;20047;-88
2022/10/29 06:13:01;;;;;;;35.63;32.45;;;18.70;99.90;;;;;;5046313;28;20028;-85
2022/10/29 06:15:27;;;;;;;34.53;31.52;;;18.70;99.90;;;;;;5054535;28;20405;-88
2022/10/29 06:17:53;;;;;;;38.65;34.92;;;18.70;99.90;;;;;;5036010;28;20535;-86
2022/10/29 06:20:20;;;;;;;35.55;32.58;;;18.70;99.90;;;;;;5059529;28;20037;-86
2022/10/29 06:22:46;;;;;;;36.50;33.05;;;18.60;99.90;;;;;;5056553;28;20024;-89
2022/10/29 06:25:12;;;;;;;35.63;32.45;;;18.50;99.90;;;;;;5047047;28;20052;-85
2022/10/29 06:27:38;;;;;;;36.78;33.58;;;18.50;99.90;;;;;;5036243;28;20508;-86
2022/10/29 06:30:05;;;;;;;34.80;32.17;;;18.50;99.90;;;;;;5054602;28;20031;-87
2022/10/29 06:32:31;;;;;;;36.65;33.70;;;18.30;99.90;;;;;;5056338;28;20044;-86
2022/10/29 06:34:57;;;;;;;36.35;32.28;;;18.20;99.90;;;;;;5035159;28;20047;-87
2022/10/29 06:37:23;;;;;;;35.55;32.47;;;18.30;99.90;;;;;;5059897;28;20051;-92
2022/10/29 06:39:49;;;;;;;34.55;31.65;;;18.40;99.90;;;;;;5073531;28;20032;-94
2022/10/29 06:42:15;;;;;;;34.65;31.23;;;18.40;99.90;;;;;;5081484;28;20036;-87
2022/10/29 06:44:41;;;;;;;36.15;33.05;;;18.20;99.90;;;;;;5060371;28;20039;-89
2022/10/29 06:47:07;;;;;;;36.15;33.17;;;18.10;99.90;;;;;;5061592;28;20032;-88
2022/10/29 06:49:33;;;;;;;35.65;32.45;;;18.20;99.90;;;;;;5080552;28;20035;-89
2022/10/29 06:51:59;;;;;;;36.22;33.35;;;18.20;99.90;;;;;;5060281;28;20059;-89
2022/10/29 06:54:25;;;;;;;35.95;33.35;;;18.30;99.90;;;;;;5052231;28;20036;-88
2022/10/29 06:56:51;;;;;;;37.75;34.33;;;18.40;99.90;;;;;;5048493;28;20047;-92
2022/10/29 06:59:18;;;;;;;35.17;31.80;;;18.50;99.90;;;;;;5069611;28;20028;-91
2022/10/29 07:01:45;;;;;;;34.50;31.80;;;18.50;99.90;;;;;;5051928;28;20481;-91
2022/10/29 07:04:11;;;;;;;34.47;31.60;;;18.40;99.90;;;;;;5057418;28;20024;-92
2022/10/29 07:06:37;;;;;;;31.63;27.88;;;18.30;99.90;;;;;;5066234;28;20374;-89
2022/10/29 07:09:03;;;;;;;31.02;28.35;;;18.20;99.90;;;;;;5064686;28;20033;-95
2022/10/29 07:11:29;;;;;;;31.48;28.92;;;18.20;99.90;;;;;;5069382;28;20048;-89
2022/10/29 07:13:55;;;;;;;30.63;27.40;;;18.20;99.90;;;;;;5067004;28;20028;-94
2022/10/29 07:16:21;;;;;;;31.58;28.38;;;18.20;99.90;;;;;;5049413;28;20067;-92
2022/10/29 07:18:47;;;;;;;30.92;27.95;;;18.10;99.90;;;;;;5085381;28;20032;-95
2022/10/29 07:21:13;;;;;;;31.42;28.77;;;18.10;99.90;;;;;;5051277;28;20043;-94
2022/10/29 07:23:40;;;;;;;32.28;29.23;;;18.10;99.90;;;;;;5103258;28;20036;-92
2022/10/29 07:26:06;;;;;;;33.13;30.17;;;18.10;99.90;;;;;;5093712;28;20024;-91
2022/10/29 07:28:32;;;;;;;32.97;29.95;;;18.20;99.90;;;;;;5078527;28;20365;-90
2022/10/29 07:30:59;;;;;;;29.60;27.08;;;18.20;99.90;;;;;;5059439;28;20024;-88
2022/10/29 07:33:26;;;;;;;31.23;28.67;;;18.30;99.90;;;;;;5054990;28;20048;-87
2022/10/29 07:35:55;;;;;;;30.75;28.05;;;18.30;99.90;;;;;;5077580;28;20028;-92
2022/10/29 07:38:21;;;;;;;33.17;30.67;;;18.30;99.90;;;;;;5081442;28;20035;-92
2022/10/29 07:40:48;;;;;;;34.03;31.23;;;18.30;99.90;;;;;;5060473;28;20063;-90
2022/10/29 07:43:15;;;;;;;31.27;27.92;;;18.40;99.90;;;;;;5050808;28;20035;-93
2022/10/29 07:45:45;;;;;;;30.60;27.65;;;18.30;99.90;;;;;;5069247;28;20023;-93
2022/10/29 07:48:11;;;;;;;39.40;27.77;;;18.30;99.90;;;;;;5060070;28;20477;-86
2022/10/29 07:50:37;;;;;;;32.30;29.50;;;18.40;99.90;;;;;;5065013;28;20040;-91
2022/10/29 07:53:04;;;;;;;31.83;28.52;;;18.50;99.70;;;;;;5075426;28;20051;-93
2022/10/29 07:55:30;;;;;;;28.65;25.88;;;18.50;99.60;;;;;;5033116;28;20033;-93
2022/10/29 07:58:01;;;;;;;25.30;22.85;;;18.50;99.50;;;;;;5029404;28;20045;-90
2022/10/29 08:00:28;;;;;;;30.15;24.75;;;18.50;99.40;;;;;;5062885;28;20036;-90
2022/10/29 08:02:54;;;;;;;27.25;24.48;;;18.40;99.40;;;;;;5031806;28;20036;-94
2022/10/29 08:05:21;;;;;;;29.27;24.92;;;18.50;99.50;;;;;;5066143;28;20032;-93
2022/10/29 08:07:47;;;;;;;26.25;23.77;;;18.50;99.50;;;;;;5045404;28;20036;-95
2022/10/29 08:10:13;;;;;;;26.75;24.08;;;18.60;99.00;;;;;;5066329;28;20020;-92
2022/10/29 08:12:39;;;;;;;27.85;25.42;;;18.60;99.10;;;;;;5072174;28;20055;-93
2022/10/29 08:15:06;;;;;;;25.88;23.55;;;18.60;99.00;;;;;;5072643;28;20040;-92
2022/10/29 08:17:32;;;;;;;26.75;24.45;;;18.50;98.90;;;;;;5048533;28;20040;-89
2022/10/29 08:19:58;;;;;;;27.45;24.88;;;18.50;99.00;;;;;;5063814;28;20035;-95
2022/10/29 08:22:24;;;;;;;23.95;21.50;;;18.60;99.00;;;;;;5093187;28;20110;-91
2022/10/29 08:24:50;;;;;;;27.08;24.48;;;18.60;99.00;;;;;;5057749;28;20040;-88
2022/10/29 08:27:16;;;;;;;28.10;24.55;;;18.70;98.80;;;;;;5058169;28;20063;-89
2022/10/29 08:29:42;;;;;;;27.42;24.00;;;18.80;98.50;;;;;;5032679;28;20036;-92
2022/10/29 08:32:09;;;;;;;26.83;24.15;;;18.80;98.50;;;;;;5075252;28;20059;-90
2022/10/29 08:34:35;;;;;;;24.13;20.90;;;18.90;98.40;;;;;;5074635;28;20039;-89
2022/10/29 08:37:01;;;;;;;29.90;26.63;;;18.90;98.10;;;;;;5063875;28;20365;-87
2022/10/29 08:39:27;;;;;;;26.25;23.70;;;19.00;98.10;;;;;;5059993;28;20032;-87
2022/10/29 08:41:59;;;;;;;24.08;22.02;;;18.90;97.90;;;;;;5057519;28;20027;-92
2022/10/29 08:44:30;;;;;;;26.98;21.55;;;19.00;98.00;;;;;;5091824;28;20020;-85
2022/10/29 08:47:13;;;;;;;24.25;21.67;;;19.00;97.70;;;;;;5086953;28;20040;-85
2022/10/29 08:49:53;;;;;;;24.45;22.02;;;19.10;97.80;;;;;;5040977;28;20040;-85
2022/10/29 08:52:23;;;;;;;23.15;20.70;;;19.00;97.50;;;;;;5065916;28;20040;-85
2022/10/29 08:54:53;;;;;;;24.47;22.00;;;19.10;97.70;;;;;;5054129;28;20021;-85
2022/10/29 08:57:20;;;;;;;28.17;22.92;;;19.10;97.20;;;;;;5053840;28;20032;-84
2022/10/29 08:59:55;;;;;;;23.33;21.08;;;19.00;97.40;;;;;;5065090;28;20031;-85
2022/10/29 09:02:21;;;;;;;25.35;22.92;;;19.00;97.30;;;;;;5075660;28;20059;-85
2022/10/29 09:04:47;;;;;;;26.02;22.17;;;19.10;97.30;;;;;;5056354;28;20024;-84
2022/10/29 09:07:16;;;;;;;24.00;21.60;;;19.10;97.20;;;;;;5058289;28;20047;-85
2022/10/29 09:09:46;;;;;;;23.20;21.05;;;19.10;97.00;;;;;;5081420;28;20027;-85
2022/10/29 09:12:26;;;;;;;24.10;21.80;;;19.10;96.90;;;;;;5040632;28;20036;-84
2022/10/29 09:15:11;;;;;;;28.80;21.80;;;19.20;96.90;;;;;;5073224;28;20040;-84
2022/10/29 09:17:46;;;;;;;26.00;21.83;;;19.20;96.70;;;;;;5065970;28;20033;-83
2022/10/29 09:20:27;;;;;;;22.85;20.85;;;19.20;96.80;;;;;;5077387;28;20047;-83
2022/10/29 09:23:05;;;;;;;25.05;22.67;;;19.30;96.50;;;;;;5079289;28;20032;-83
2022/10/29 09:25:42;;;;;;;23.80;21.35;;;19.40;96.40;;;;;;5075432;28;20025;-85
2022/10/29 09:28:42;;;;;;;24.23;21.67;;;19.40;96.20;;;;;;5058556;28;20397;-83
2022/10/29 09:31:23;;;;;;;28.17;22.17;;;19.40;96.20;;;;;;5067807;28;20035;-83
2022/10/29 09:33:50;;;;;;;;;;;19.50;96.10;;;;;;5077308;28;20050;-84
2022/10/29 09:36:17;;;;;;;23.80;21.08;;;19.60;95.90;;;;;;5059496;28;19911;-84
2022/10/29 09:38:58;;;;;;;25.20;22.95;;;19.60;95.60;;;;;;5042162;28;20028;-84
2022/10/29 09:41:26;;;;;;;23.45;21.33;;;19.60;95.60;;;;;;5047133;28;20024;-84
2022/10/29 09:44:00;;;;;;;25.58;23.27;;;19.50;95.70;;;;;;5058272;28;20024;-84
2022/10/29 09:46:40;;;;;;;30.95;22.95;;;19.70;95.50;;;;;;5041202;28;20044;-93
2022/10/29 09:49:18;;;;;;;24.90;22.55;;;19.70;95.20;;;;;;5058108;28;20028;-88
2022/10/29 09:51:55;;;;;;;27.25;23.40;;;19.70;95.20;;;;;;5087966;28;20043;-84
2022/10/29 09:54:22;;;;;;;27.73;25.05;;;19.70;95.10;;;;;;5049964;28;20044;-86
2022/10/29 09:56:48;;;;;;;27.10;24.48;;;19.80;95.10;;;;;;5056318;28;20103;-85
2022/10/29 09:59:38;;;;;;;24.80;22.20;;;19.80;94.90;;;;;;5093570;28;20046;-92
2022/10/29 10:02:26;;;;;;;26.45;23.80;;;19.90;94.90;;;;;;5045708;28;20032;-89
2022/10/29 10:04:59;;;;;;;27.27;24.55;;;19.90;94.80;;;;;;5063543;28;20044;-92
2022/10/29 10:07:25;;;;;;;26.65;24.00;;;20.00;94.90;;;;;;5062723;28;20032;-89
2022/10/29 10:09:54;;;;;;;30.75;25.65;;;20.00;94.80;;;;;;5064092;28;20033;-89
2022/10/29 10:12:44;;;;;;;27.45;24.63;;;20.00;94.70;;;;;;5058739;28;20063;-93
2022/10/29 10:15:33;;;;;;;30.50;26.30;;;20.10;94.30;;;;;;5050203;28;20344;-94
2022/10/29 10:18:05;;;;;;;28.23;26.23;;;20.20;94.30;;;;;;5044231;28;20377;-92
2022/10/29 10:20:37;;;;;;;26.38;24.13;;;20.30;94.40;;;;;;5060622;28;20365;-93
2022/10/29 10:23:21;;;;;;;27.27;24.70;;;20.40;94.80;;;;;;5078345;28;20622;-92
2022/10/29 10:25:47;;;;;;;28.30;25.65;;;20.50;93.90;;;;;;5064479;28;20028;-93
2022/10/29 10:28:18;;;;;;;28.67;25.30;;;20.60;93.70;;;;;;5064491;28;20032;-91
2022/10/29 10:30:45;;;;;;;28.95;26.23;;;20.70;93.40;;;;;;5079711;28;20039;-92
2022/10/29 10:33:24;;;;;;;32.35;29.48;;;20.80;93.60;;;;;;5050422;28;20040;-92
2022/10/29 10:35:51;;;;;;;30.50;27.58;;;21.00;94.10;;;;;;5039680;28;20056;-87
2022/10/29 10:38:18;;;;;;;32.92;29.73;;;21.10;91.90;;;;;;5028125;28;20043;-88
2022/10/29 10:40:44;;;;;;;33.88;31.02;;;21.20;92.10;;;;;;5036430;28;20389;-87
2022/10/29 10:43:18;;;;;;;35.22;32.63;;;21.40;92.10;;;;;;5040944;28;20040;-84
2022/10/29 10:45:45;;;;;;;42.58;39.35;;;21.50;90.30;;;;;;5060569;28;20036;-88
2022/10/29 10:48:12;;;;;;;48.17;44.78;;;21.60;88.70;;;;;;5067777;28;20024;-89
2022/10/29 10:50:38;;;;;;;41.60;38.08;;;21.70;85.60;;;;;;5054884;28;20040;-89
2022/10/29 10:53:18;;;;;;;44.47;41.33;;;21.80;87.20;;;;;;5076062;28;20408;-88
2022/10/29 10:55:56;;;;;;;46.37;43.03;;;21.90;85.50;;;;;;5054683;28;20063;-89
2022/10/29 10:58:23;;;;;;;44.83;41.42;;;21.90;84.60;;;;;;5059872;28;20043;-85
2022/10/29 11:00:56;;;;;;;47.90;44.53;;;21.90;85.30;;;;;;5049033;28;20401;-85
2022/10/29 11:03:38;;;;;;;44.83;41.28;;;21.90;83.80;;;;;;5034090;28;20051;-85
2022/10/29 11:06:12;;;;;;;50.70;47.17;;;22.00;84.20;;;;;;5055001;28;20484;-85
2022/10/29 11:08:48;;;;;;;45.80;42.17;;;22.00;82.60;;;;;;5058223;28;20085;-89
2022/10/29 11:11:19;;;;;;;50.20;46.55;;;22.20;82.70;;;;;;5071838;28;20028;-84
2022/10/29 11:13:45;;;;;;;51.97;48.38;;;22.20;83.10;;;;;;5048780;28;20037;-85
2022/10/29 11:16:30;;;;;;;54.58;50.78;;;22.30;81.60;;;;;;5041948;28;20374;-88
2022/10/29 11:19:00;;;;;;;42.95;39.35;;;22.40;81.20;;;;;;5042438;28;20120;-86
2022/10/29 11:21:51;;;;;;;47.38;43.42;;;22.50;81.30;;;;;;5060238;28;20370;-90
2022/10/29 11:24:24;;;;;;;51.05;47.75;;;22.60;80.00;;;;;;5043502;28;20020;-90
2022/10/29 11:26:58;;;;;;;539.55;286.92;;;22.70;79.50;;;;;;5069599;28;20027;-85
2022/10/29 11:29:42;;;;;;;54.65;51.33;;;22.80;78.50;;;;;;5047270;28;20029;-82
2022/10/29 11:32:11;;;;;;;57.08;53.53;;;22.80;78.80;;;;;;5068368;28;20047;-89
2022/10/29 11:34:37;;;;;;;1999.90;999.90;;;22.80;78.80;;;;;;5068885;28;20032;-84
2022/10/29 11:37:10;;;;;;;1999.90;999.90;;;22.90;78.60;;;;;;5088934;28;20361;-84
2022/10/29 11:39:42;;;;;;;1999.90;999.90;;;22.90;77.80;;;;;;5044616;28;20035;-83
2022/10/29 11:42:09;;;;;;;1999.90;999.90;;;23.00;77.70;;;;;;5047544;28;20528;-84
2022/10/29 11:44:37;;;;;;;67.60;63.33;;;23.10;77.20;;;;;;5060887;28;20028;-84
2022/10/29 11:47:27;;;;;;;69.43;65.03;;;23.10;76.90;;;;;;5022210;28;20043;-83
2022/10/29 11:50:08;;;;;;;65.03;60.72;;;23.20;76.50;;;;;;5083872;28;20031;-83
2022/10/29 11:52:41;;;;;;;1999.90;999.90;;;23.20;76.00;;;;;;5052826;28;20039;-84
2022/10/29 11:55:31;;;;;;;1999.90;999.90;;;23.30;76.20;;;;;;5053312;28;20044;-83
2022/10/29 11:58:02;;;;;;;100.30;94.10;;;23.40;75.20;;;;;;5049938;28;20028;-84
2022/10/29 12:00:45;;;;;;;93.40;87.72;;;23.50;76.10;;;;;;5056707;28;20028;-84
2022/10/29 12:03:30;;;;;;;80.63;76.32;;;23.60;75.90;;;;;;5057521;28;20038;-84
2022/10/29 12:06:25;;;;;;;96.40;90.80;;;23.80;74.60;;;;;;5062957;28;20094;-84
2022/10/29 12:09:10;;;;;;;98.28;92.32;;;24.00;71.10;;;;;;5056835;28;20037;-84
2022/10/29 12:11:43;;;;;;;92.25;87.05;;;24.10;69.00;;;;;;5071355;28;20020;-83
2022/10/29 12:14:29;;;;;;;94.03;89.03;;;24.20;69.10;;;;;;5070427;28;20485;-83
2022/10/29 12:17:12;;;;;;;96.50;90.60;;;24.40;66.70;;;;;;5052909;28;20052;-83
2022/10/29 12:20:32;;;;;;;94.57;89.07;;;24.40;66.40;;;;;;5052965;28;20509;-84
2022/10/29 12:23:11;;;;;;;98.37;92.93;;;24.60;66.20;;;;;;5027537;28;20041;-85
2022/10/29 12:25:54;;;;;;;106.68;100.85;;;24.60;65.90;;;;;;4995478;28;20608;-85
2022/10/29 12:28:25;;;;;;;100.82;95.10;;;24.60;66.40;;;;;;5004808;28;20037;-84
2022/10/29 12:30:57;;;;;;;;;;;24.70;65.90;;;;;;5003985;28;20034;-85
2022/10/29 12:33:27;;;;;;;91.05;85.75;;;24.70;65.70;;;;;;5015883;28;20316;-84
2022/10/29 12:36:18;;;;;;;89.60;84.38;;;24.70;66.00;;;;;;5003957;28;20090;-85
2022/10/29 12:38:53;;;;;;;96.45;91.20;;;24.60;65.60;;;;;;5002576;28;20030;-84
2022/10/29 12:41:45;;;;;;;113.15;106.65;;;24.50;65.00;;;;;;5005912;28;20050;-84